sensor_id;sensor_type;location;lat;lon;timestamp;pressure;altitude;pressure_sealevel;temperature;humidity
48027;BME280;50714;49.208;5.364;2023-03-31T00:07:13;98683.78;;;11.92;81.63
48027;BME280;50714;49.208;5.364;2023-03-31T00:17:15;98644.06;;;11.93;82.75
48027;BME280;50714;49.208;5.364;2023-03-31T00:27:15;98617.00;;;11.81;83.43
48027;BME280;50714;49.208;5.364;2023-03-31T00:37:16;98599.09;;;11.69;84.23
48027;BME280;50714;49.208;5.364;2023-03-31T00:47:18;98569.00;;;11.65;84.64
48027;BME280;50714;49.208;5.364;2023-03-31T00:57:21;98527.50;;;11.59;85.24
48027;BME280;50714;49.208;5.364;2023-03-31T01:07:27;98493.41;;;11.35;86.41
48027;BME280;50714;49.208;5.364;2023-03-31T01:17:30;98490.47;;;11.37;86.34
48027;BME280;50714;49.208;5.364;2023-03-31T01:59:18;98277.59;;;10.87;87.35
48027;BME280;50714;49.208;5.364;2023-03-31T02:09:25;98206.38;;;11.00;86.45
48027;BME280;50714;49.208;5.364;2023-03-31T02:19:36;98244.13;;;11.11;86.16
48027;BME280;50714;49.208;5.364;2023-03-31T02:29:39;98298.94;;;11.23;86.09
48027;BME280;50714;49.208;5.364;2023-03-31T02:39:40;98292.84;;;11.16;86.59
48027;BME280;50714;49.208;5.364;2023-03-31T02:50:02;98259.06;;;11.02;93.15
48027;BME280;50714;49.208;5.364;2023-03-31T03:00:29;98188.22;;;10.60;98.93
48027;BME280;50714;49.208;5.364;2023-03-31T03:11:18;98170.63;;;10.46;99.75
48027;BME280;50714;49.208;5.364;2023-03-31T03:20:59;98143.78;;;10.39;99.76
48027;BME280;50714;49.208;5.364;2023-03-31T03:30:59;98112.22;;;10.51;99.37
48027;BME280;50714;49.208;5.364;2023-03-31T03:40:59;98086.88;;;10.52;100.00
48027;BME280;50714;49.208;5.364;2023-03-31T03:51:00;98061.59;;;10.30;100.00
48027;BME280;50714;49.208;5.364;2023-03-31T04:01:01;98058.56;;;10.27;100.00
48027;BME280;50714;49.208;5.364;2023-03-31T04:11:01;98028.38;;;10.41;100.00
48027;BME280;50714;49.208;5.364;2023-03-31T04:21:02;98018.03;;;10.62;100.00
48027;BME280;50714;49.208;5.364;2023-03-31T04:31:05;98005.06;;;10.75;100.00
48027;BME280;50714;49.208;5.364;2023-03-31T04:41:05;97994.13;;;10.82;100.00
48027;BME280;50714;49.208;5.364;2023-03-31T04:51:06;98001.25;;;10.88;100.00
48027;BME280;50714;49.208;5.364;2023-03-31T05:01:08;98010.16;;;10.88;100.00
48027;BME280;50714;49.208;5.364;2023-03-31T05:11:09;98004.03;;;10.93;100.00
48027;BME280;50714;49.208;5.364;2023-03-31T05:21:20;97985.50;;;10.97;100.00
48027;BME280;50714;49.208;5.364;2023-03-31T05:31:20;97979.84;;;10.98;100.00
48027;BME280;50714;49.208;5.364;2023-03-31T05:41:21;97982.41;;;11.05;100.00
48027;BME280;50714;49.208;5.364;2023-03-31T05:51:22;97985.50;;;11.13;100.00
48027;BME280;50714;49.208;5.364;2023-03-31T06:01:22;97975.63;;;11.19;100.00
48027;BME280;50714;49.208;5.364;2023-03-31T06:11:23;97960.09;;;11.26;100.00
48027;BME280;50714;49.208;5.364;2023-03-31T06:21:24;97950.91;;;11.27;100.00
48027;BME280;50714;49.208;5.364;2023-03-31T06:31:24;97967.69;;;11.29;100.00
48027;BME280;50714;49.208;5.364;2023-03-31T06:41:25;97948.22;;;11.44;100.00
48027;BME280;50714;49.208;5.364;2023-03-31T06:51:25;97934.75;;;11.66;99.91
48027;BME280;50714;49.208;5.364;2023-03-31T07:01:26;97941.44;;;12.18;96.71
48027;BME280;50714;49.208;5.364;2023-03-31T07:11:26;97917.13;;;12.67;92.50
48027;BME280;50714;49.208;5.364;2023-03-31T07:21:26;97917.81;;;12.57;90.25
48027;BME280;50714;49.208;5.364;2023-03-31T07:31:28;97935.09;;;12.29;91.26
48027;BME280;50714;49.208;5.364;2023-03-31T07:41:28;97940.69;;;12.23;90.41
48027;BME280;50714;49.208;5.364;2023-03-31T07:51:28;97930.38;;;13.59;86.84
48027;BME280;50714;49.208;5.364;2023-03-31T08:01:29;97927.53;;;13.81;81.08
48027;BME280;50714;49.208;5.364;2023-03-31T08:11:29;97937.72;;;14.63;82.31
48027;BME280;50714;49.208;5.364;2023-03-31T08:21:30;97947.03;;;15.74;74.96
48027;BME280;50714;49.208;5.364;2023-03-31T08:31:31;97950.72;;;14.61;75.41
48027;BME280;50714;49.208;5.364;2023-03-31T08:51:47;97928.41;;;14.49;73.19
48027;BME280;50714;49.208;5.364;2023-03-31T09:12:10;97905.34;;;16.68;65.12
48027;BME280;50714;49.208;5.364;2023-03-31T09:22:19;97913.53;;;15.89;68.09
48027;BME280;50714;49.208;5.364;2023-03-31T09:32:27;97919.56;;;15.65;67.61
48027;BME280;50714;49.208;5.364;2023-03-31T09:42:28;97900.09;;;17.16;59.09
48027;BME280;50714;49.208;5.364;2023-03-31T09:52:31;97898.59;;;17.63;63.71
48027;BME280;50714;49.208;5.364;2023-03-31T10:02:35;97881.91;;;16.08;63.82
48027;BME280;50714;49.208;5.364;2023-03-31T10:12:36;97876.81;;;15.91;65.63
48027;BME280;50714;49.208;5.364;2023-03-31T10:22:43;97871.59;;;17.32;62.10
48027;BME280;50714;49.208;5.364;2023-03-31T10:32:43;97855.50;;;18.13;61.82
48027;BME280;50714;49.208;5.364;2023-03-31T10:42:45;97863.94;;;18.78;61.70
48027;BME280;50714;49.208;5.364;2023-03-31T10:52:47;97850.78;;;20.18;57.68
48027;BME280;50714;49.208;5.364;2023-03-31T11:23:43;97850.41;;;18.25;53.91
48027;BME280;50714;49.208;5.364;2023-03-31T11:33:57;97827.44;;;18.07;56.91
48027;BME280;50714;49.208;5.364;2023-03-31T11:44:07;97806.69;;;17.87;55.80
48027;BME280;50714;49.208;5.364;2023-03-31T11:54:36;97819.22;;;16.28;56.70
48027;BME280;50714;49.208;5.364;2023-03-31T12:04:42;97826.75;;;15.92;59.35
48027;BME280;50714;49.208;5.364;2023-03-31T12:14:58;97801.25;;;15.73;60.50
48027;BME280;50714;49.208;5.364;2023-03-31T12:25:03;97814.06;;;15.62;61.61
48027;BME280;50714;49.208;5.364;2023-03-31T12:35:11;97804.97;;;15.97;61.39
48027;BME280;50714;49.208;5.364;2023-03-31T12:45:42;97780.25;;;15.84;57.52
48027;BME280;50714;49.208;5.364;2023-03-31T12:55:49;97779.25;;;15.64;60.60
48027;BME280;50714;49.208;5.364;2023-03-31T13:05:53;97761.31;;;16.18;59.99
48027;BME280;50714;49.208;5.364;2023-03-31T13:15:55;97769.13;;;16.29;59.08
48027;BME280;50714;49.208;5.364;2023-03-31T13:25:57;97766.44;;;16.24;58.72
48027;BME280;50714;49.208;5.364;2023-03-31T13:36:13;97762.13;;;16.18;56.74
48027;BME280;50714;49.208;5.364;2023-03-31T13:56:46;97767.56;;;15.54;58.38
48027;BME280;50714;49.208;5.364;2023-03-31T14:07:01;97745.38;;;15.16;62.72
48027;BME280;50714;49.208;5.364;2023-03-31T14:17:07;97730.16;;;15.25;61.88
48027;BME280;50714;49.208;5.364;2023-03-31T14:37:20;97714.63;;;15.36;60.31
48027;BME280;50714;49.208;5.364;2023-03-31T14:47:24;97708.69;;;15.24;60.51
48027;BME280;50714;49.208;5.364;2023-03-31T14:57:29;97697.56;;;15.20;61.05
48027;BME280;50714;49.208;5.364;2023-03-31T15:07:32;97699.72;;;15.18;61.39
48027;BME280;50714;49.208;5.364;2023-03-31T15:17:39;97711.19;;;15.00;62.65
48027;BME280;50714;49.208;5.364;2023-03-31T15:27:45;97710.44;;;14.79;63.78
48027;BME280;50714;49.208;5.364;2023-03-31T15:37:46;97714.50;;;14.72;63.72
48027;BME280;50714;49.208;5.364;2023-03-31T15:47:51;97718.88;;;14.62;63.26
48027;BME280;50714;49.208;5.364;2023-03-31T15:57:53;97711.81;;;14.51;62.74
48027;BME280;50714;49.208;5.364;2023-03-31T16:07:55;97709.09;;;14.41;63.55
48027;BME280;50714;49.208;5.364;2023-03-31T16:17:59;97756.81;;;14.17;65.96
48027;BME280;50714;49.208;5.364;2023-03-31T16:28:01;97787.75;;;13.48;71.20
48027;BME280;50714;49.208;5.364;2023-03-31T16:38:03;97758.00;;;12.69;70.11
48027;BME280;50714;49.208;5.364;2023-03-31T16:48:03;97769.22;;;12.51;72.09
48027;BME280;50714;49.208;5.364;2023-03-31T16:58:04;97774.31;;;12.47;73.79
48027;BME280;50714;49.208;5.364;2023-03-31T17:08:04;97769.25;;;12.29;72.73
48027;BME280;50714;49.208;5.364;2023-03-31T17:18:05;97785.84;;;12.11;72.98
48027;BME280;50714;49.208;5.364;2023-03-31T17:28:06;97791.22;;;12.06;74.21
48027;BME280;50714;49.208;5.364;2023-03-31T17:38:07;97787.66;;;12.00;75.75
48027;BME280;50714;49.208;5.364;2023-03-31T17:48:08;97782.69;;;11.92;76.56
48027;BME280;50714;49.208;5.364;2023-03-31T17:58:09;97791.00;;;11.85;76.20
48027;BME280;50714;49.208;5.364;2023-03-31T18:08:12;97794.38;;;11.76;76.00
48027;BME280;50714;49.208;5.364;2023-03-31T18:18:13;97804.56;;;11.69;74.79
48027;BME280;50714;49.208;5.364;2023-03-31T18:28:15;97823.59;;;11.57;75.06
48027;BME280;50714;49.208;5.364;2023-03-31T18:38:16;97833.69;;;11.45;75.90
48027;BME280;50714;49.208;5.364;2023-03-31T18:48:17;97840.91;;;11.39;75.82
48027;BME280;50714;49.208;5.364;2023-03-31T18:58:18;97858.63;;;11.30;75.81
48027;BME280;50714;49.208;5.364;2023-03-31T19:08:18;97859.94;;;11.27;76.54
48027;BME280;50714;49.208;5.364;2023-03-31T19:18:19;97857.78;;;11.30;76.25
48027;BME280;50714;49.208;5.364;2023-03-31T19:28:21;97866.63;;;11.25;74.85
48027;BME280;50714;49.208;5.364;2023-03-31T19:38:22;97887.81;;;11.16;75.03
48027;BME280;50714;49.208;5.364;2023-03-31T19:48:25;97880.53;;;11.17;74.67
48027;BME280;50714;49.208;5.364;2023-03-31T19:58:28;97902.06;;;11.12;74.66
48027;BME280;50714;49.208;5.364;2023-03-31T20:08:29;97889.38;;;11.12;74.35
48027;BME280;50714;49.208;5.364;2023-03-31T20:18:29;97907.41;;;11.07;74.85
48027;BME280;50714;49.208;5.364;2023-03-31T20:28:32;97911.47;;;10.92;75.55
48027;BME280;50714;49.208;5.364;2023-03-31T20:38:35;97899.19;;;10.85;75.65
48027;BME280;50714;49.208;5.364;2023-03-31T20:48:37;97896.75;;;10.83;76.04
48027;BME280;50714;49.208;5.364;2023-03-31T20:58:39;97920.13;;;10.78;75.88
48027;BME280;50714;49.208;5.364;2023-03-31T21:08:42;97930.91;;;10.78;76.03
48027;BME280;50714;49.208;5.364;2023-03-31T21:18:44;97942.28;;;10.80;75.84
48027;BME280;50714;49.208;5.364;2023-03-31T21:28:45;97934.09;;;10.75;75.82
48027;BME280;50714;49.208;5.364;2023-03-31T21:38:45;97938.19;;;10.77;75.56
48027;BME280;50714;49.208;5.364;2023-03-31T21:48:47;97931.16;;;10.76;75.40
48027;BME280;50714;49.208;5.364;2023-03-31T21:58:47;97940.69;;;10.67;75.73
48027;BME280;50714;49.208;5.364;2023-03-31T22:08:49;97935.63;;;10.71;75.87
48027;BME280;50714;49.208;5.364;2023-03-31T22:18:50;97942.81;;;10.65;76.24
48027;BME280;50714;49.208;5.364;2023-03-31T22:28:51;97932.75;;;10.61;76.83
48027;BME280;50714;49.208;5.364;2023-03-31T22:38:52;97939.22;;;10.59;76.61
48027;BME280;50714;49.208;5.364;2023-03-31T22:48:52;97939.69;;;10.56;76.85
48027;BME280;50714;49.208;5.364;2023-03-31T22:58:55;97944.84;;;10.58;76.84
48027;BME280;50714;49.208;5.364;2023-03-31T23:08:57;97952.13;;;10.57;76.95
48027;BME280;50714;49.208;5.364;2023-03-31T23:18:57;97961.75;;;10.53;77.31
48027;BME280;50714;49.208;5.364;2023-03-31T23:28:58;97951.19;;;10.52;77.61
48027;BME280;50714;49.208;5.364;2023-03-31T23:38:58;97963.06;;;10.51;77.43
48027;BME280;50714;49.208;5.364;2023-03-31T23:48:58;97959.91;;;10.42;79.20
48027;BME280;50714;49.208;5.364;2023-03-31T23:59:01;97963.25;;;10.33;78.95
